Time;durP1;ratioP1;P1;durP2;ratioP2;P2;SDS_P1;SDS_P2;PMS_P1;PMS_P2;Temp;Humidity;BMP_temperature;BMP_pressure;BME280_temperature;BME280_humidity;BME280_pressure;Samples;Min_cycle;Max_cycle;Signal;HPM_P1;HPM_P2
2021/06/15 00:01:16;;;;;;;3.47;3.23;;;26.30;45.60;;;;;;5029485;28;20788;-50
2021/06/15 00:03:42;;;;;;;4.43;4.03;;;26.40;45.50;;;;;;5024027;28;20221;-51
2021/06/15 00:06:08;;;;;;;6.20;4.27;;;26.50;45.30;;;;;;5028587;28;20633;-53
2021/06/15 00:08:33;;;;;;;6.00;3.87;;;26.50;45.00;;;;;;5027631;28;20225;-51
2021/06/15 00:10:59;;;;;;;5.20;3.70;;;26.50;44.90;;;;;;5029580;28;20219;-52
2021/06/15 00:13:25;;;;;;;4.63;3.50;;;26.60;44.80;;;;;;5033671;28;20264;-49
2021/06/15 00:15:50;;;;;;;4.93;4.00;;;26.60;44.80;;;;;;5025986;28;20193;-52
2021/06/15 00:18:18;;;;;;;10.73;3.87;;;26.60;44.60;;;;;;5030729;28;20289;-53
2021/06/15 00:20:44;;;;;;;3.90;3.60;;;26.70;44.50;;;;;;5028044;28;20185;-52
2021/06/15 00:23:10;;;;;;;4.00;3.70;;;26.70;44.30;;;;;;5030909;28;21041;-50
2021/06/15 00:25:36;;;;;;;5.80;5.40;;;26.70;44.10;;;;;;5026950;28;20519;-52
2021/06/15 00:28:01;;;;;;;4.80;3.60;;;26.70;44.20;;;;;;5029523;28;20193;-51
2021/06/15 00:30:27;;;;;;;3.97;3.67;;;26.70;44.00;;;;;;5023910;28;20269;-52
2021/06/15 00:32:53;;;;;;;4.37;3.50;;;26.70;44.00;;;;;;5026125;28;20671;-52
2021/06/15 00:35:19;;;;;;;4.07;3.23;;;26.60;44.10;;;;;;5026893;28;20574;-51
2021/06/15 00:37:45;;;;;;;4.73;3.10;;;26.60;43.90;;;;;;5026474;28;20649;-49
2021/06/15 00:40:11;;;;;;;4.77;3.77;;;26.60;43.90;;;;;;5030707;28;20451;-52
2021/06/15 00:42:38;;;;;;;3.90;3.50;;;26.60;44.00;;;;;;5032344;28;20193;-52
2021/06/15 00:45:08;;;;;;;4.00;3.60;;;26.50;44.10;;;;;;5027846;28;20221;-50
2021/06/15 00:47:34;;;;;;;3.60;3.30;;;26.50;44.10;;;;;;5027021;28;20935;-52
2021/06/15 00:50:00;;;;;;;4.23;3.83;;;26.40;44.30;;;;;;5028641;28;20556;-52
2021/06/15 00:52:25;;;;;;;4.40;3.80;;;26.30;44.20;;;;;;5030952;28;20189;-53
2021/06/15 00:54:51;;;;;;;3.83;3.40;;;26.30;44.50;;;;;;5027593;28;20440;-52
2021/06/15 00:57:18;;;;;;;4.43;4.13;;;26.10;44.80;;;;;;5027425;28;20236;-52
2021/06/15 00:59:44;;;;;;;3.93;3.63;;;26.10;44.70;;;;;;5030849;28;20243;-52
2021/06/15 01:02:11;;;;;;;4.27;3.90;;;26.20;44.70;;;;;;5030206;28;20447;-53
2021/06/15 01:04:36;;;;;;;8.30;4.00;;;26.20;44.50;;;;;;5026499;28;20204;-50
2021/06/15 01:07:16;;;;;;;4.77;3.27;;;26.20;44.50;;;;;;5025969;28;20444;-52
2021/06/15 01:10:01;;;;;;;3.80;3.47;;;26.20;44.60;;;;;;5025762;28;20235;-52
2021/06/15 01:12:37;;;;;;;4.20;3.37;;;26.20;44.70;;;;;;5030952;28;21194;-52
2021/06/15 01:15:10;;;;;;;4.33;3.67;;;26.20;44.60;;;;;;5028678;28;20451;-52
2021/06/15 01:17:40;;;;;;;5.80;3.47;;;26.20;44.60;;;;;;5032601;28;20448;-54
2021/06/15 01:20:17;;;;;;;3.67;3.30;;;26.20;44.60;;;;;;5023374;28;20961;-52
2021/06/15 01:23:14;;;;;;;3.77;3.30;;;26.20;44.50;;;;;;5029152;28;20448;-50
2021/06/15 01:25:54;;;;;;;5.30;3.23;;;26.00;44.90;;;;;;4996114;28;20502;-49
2021/06/15 01:28:20;;;;;;;4.10;3.80;;;25.90;45.10;;;;;;5026786;28;20488;-51
2021/06/15 01:31:17;;;;;;;4.10;3.40;;;25.80;45.10;;;;;;5027085;28;21364;-48
2021/06/15 01:33:50;;;;;;;4.07;3.77;;;25.50;46.00;;;;;;5009706;28;20231;-51
2021/06/15 01:36:18;;;;;;;4.93;3.77;;;25.60;45.80;;;;;;5028863;28;20452;-53
2021/06/15 01:38:59;;;;;;;4.43;3.73;;;25.60;45.90;;;;;;5027481;28;20455;-51
2021/06/15 01:41:33;;;;;;;3.97;3.07;;;25.60;45.80;;;;;;5026385;28;20455;-48
2021/06/15 01:44:04;;;;;;;5.27;3.70;;;25.60;45.80;;;;;;5023038;28;20802;-51
2021/06/15 01:46:33;;;;;;;4.30;4.00;;;25.60;45.60;;;;;;5027017;28;20813;-52
2021/06/15 01:49:08;;;;;;;4.00;3.60;;;25.70;45.30;;;;;;5028170;28;20494;-52
2021/06/15 01:51:35;;;;;;;4.47;3.87;;;25.70;45.00;;;;;;5024129;28;20535;-49
2021/06/15 01:54:10;;;;;;;8.00;4.10;;;25.60;45.00;;;;;;5027360;28;20448;-52
2021/06/15 01:56:41;;;;;;;4.43;3.77;;;25.40;45.40;;;;;;5029732;28;20780;-50
2021/06/15 01:59:13;;;;;;;6.17;3.80;;;24.90;46.30;;;;;;5028989;28;20471;-51
2021/06/15 02:01:41;;;;;;;5.47;3.80;;;24.70;47.20;;;;;;5028685;28;20455;-49
2021/06/15 02:04:07;;;;;;;4.23;3.90;;;24.80;47.20;;;;;;5027668;28;20446;-49
2021/06/15 02:06:35;;;;;;;4.17;3.80;;;24.90;46.90;;;;;;5027686;28;20531;-48
2021/06/15 02:09:05;;;;;;;4.10;3.47;;;25.00;46.40;;;;;;5027873;28;20999;-52
2021/06/15 02:11:31;;;;;;;5.60;4.07;;;25.00;46.30;;;;;;5023986;28;20613;-51
2021/06/15 02:14:01;;;;;;;3.87;3.57;;;24.80;46.50;;;;;;5027252;28;20448;-50
2021/06/15 02:16:28;;;;;;;4.03;3.63;;;24.80;47.00;;;;;;5025894;28;20444;-52
2021/06/15 02:18:55;;;;;;;3.97;3.60;;;24.80;47.10;;;;;;5028640;28;20448;-49
2021/06/15 02:21:21;;;;;;;3.60;3.30;;;24.60;47.30;;;;;;5028234;28;20467;-52
2021/06/15 02:23:50;;;;;;;4.77;4.10;;;24.50;47.70;;;;;;5027714;28;20532;-52
2021/06/15 02:26:19;;;;;;;4.90;3.60;;;24.50;47.30;;;;;;5028094;28;20535;-52
2021/06/15 02:28:45;;;;;;;8.00;3.90;;;24.60;47.40;;;;;;5019497;28;20511;-49
2021/06/15 02:31:16;;;;;;;5.57;4.30;;;24.70;47.10;;;;;;5026205;28;20479;-49
2021/06/15 02:33:47;;;;;;;3.67;3.37;;;24.80;46.80;;;;;;5023914;28;20805;-53
2021/06/15 02:36:23;;;;;;;4.53;3.20;;;24.90;46.70;;;;;;5025182;28;20444;-52
2021/06/15 02:38:55;;;;;;;14.63;4.00;;;25.00;46.50;;;;;;5026502;28;20455;-51
2021/06/15 02:41:22;;;;;;;5.00;4.20;;;24.90;46.60;;;;;;5031306;28;20442;-49
2021/06/15 02:43:50;;;;;;;3.80;3.50;;;24.90;46.50;;;;;;5025008;28;20440;-53
2021/06/15 02:46:17;;;;;;;6.90;3.90;;;25.00;46.50;;;;;;5026216;28;22644;-48
2021/06/15 02:48:50;;;;;;;3.90;3.60;;;25.00;46.40;;;;;;5028668;28;20892;-51
2021/06/15 02:51:16;;;;;;;4.03;3.47;;;25.10;46.20;;;;;;5030359;28;20543;-51
2021/06/15 02:53:47;;;;;;;4.10;3.70;;;25.10;46.10;;;;;;5025861;28;20527;-50
2021/06/15 02:56:20;;;;;;;5.90;4.50;;;24.90;46.30;;;;;;5017055;28;20970;-48
2021/06/15 02:58:47;;;;;;;4.20;3.80;;;24.90;46.40;;;;;;5023067;28;20448;-51
2021/06/15 03:01:13;;;;;;;4.27;3.87;;;24.90;46.30;;;;;;5026922;28;20860;-50
2021/06/15 03:03:39;;;;;;;4.30;3.77;;;24.90;46.20;;;;;;5025893;28;20854;-49
2021/06/15 03:06:06;;;;;;;4.50;3.70;;;25.00;46.20;;;;;;5025779;28;20961;-52
2021/06/15 03:08:33;;;;;;;3.87;3.57;;;25.00;46.10;;;;;;5027412;28;20488;-50
2021/06/15 03:10:58;;;;;;;4.33;3.50;;;25.00;46.00;;;;;;5028216;28;20802;-48
2021/06/15 03:13:49;;;;;;;3.50;3.20;;;25.00;46.00;;;;;;5026204;28;20475;-52
2021/06/15 03:16:18;;;;;;;3.80;3.40;;;25.10;45.90;;;;;;5024583;28;20232;-49
2021/06/15 03:18:46;;;;;;;5.30;4.03;;;25.00;45.70;;;;;;5027397;28;20478;-52
2021/06/15 03:21:18;;;;;;;5.80;3.53;;;25.00;45.80;;;;;;5015122;28;20453;-50
2021/06/15 03:24:05;;;;;;;4.07;3.67;;;25.00;45.90;;;;;;5029804;28;20455;-49
2021/06/15 03:26:40;;;;;;;6.00;3.63;;;24.90;46.00;;;;;;5014308;28;20510;-47
2021/06/15 03:29:10;;;;;;;3.80;3.50;;;24.90;46.00;;;;;;5018614;28;20494;-53
2021/06/15 03:31:41;;;;;;;3.40;3.10;;;24.80;46.00;;;;;;5029227;28;20543;-53
2021/06/15 03:34:09;;;;;;;4.60;3.47;;;24.80;46.20;;;;;;5031963;28;20931;-48
2021/06/15 03:36:38;;;;;;;3.87;3.57;;;24.80;46.10;;;;;;5027191;28;20483;-52
2021/06/15 03:39:05;;;;;;;4.67;4.13;;;24.80;45.80;;;;;;5026225;28;20447;-52
2021/06/15 03:41:32;;;;;;;3.40;3.13;;;24.80;46.10;;;;;;5023547;28;20444;-48
2021/06/15 03:44:01;;;;;;;3.50;3.20;;;24.90;45.90;;;;;;5030696;28;20754;-52
2021/06/15 03:46:29;;;;;;;4.70;3.57;;;24.70;46.00;;;;;;5027872;28;20455;-49
2021/06/15 03:48:57;;;;;;;4.80;4.30;;;24.70;46.00;;;;;;5033315;28;21111;-50
2021/06/15 03:51:27;;;;;;;5.30;4.40;;;24.50;46.40;;;;;;5030801;28;21011;-50
2021/06/15 03:53:53;;;;;;;4.80;4.30;;;24.50;46.50;;;;;;5032670;28;20471;-51
2021/06/15 03:56:32;;;;;;;4.70;4.07;;;24.30;46.60;;;;;;5036190;28;20475;-51
2021/06/15 03:58:58;;;;;;;5.60;4.50;;;24.10;46.80;;;;;;5036008;28;20427;-47
2021/06/15 04:01:24;;;;;;;4.10;3.73;;;23.90;47.30;;;;;;5032205;28;20440;-50
2021/06/15 04:03:52;;;;;;;4.20;3.63;;;23.60;47.90;;;;;;5033043;28;20201;-48
2021/06/15 04:06:20;;;;;;;5.53;4.23;;;23.20;48.80;;;;;;5030692;28;20618;-51
2021/06/15 04:08:48;;;;;;;4.77;4.27;;;22.70;49.80;;;;;;5028352;28;21051;-48
2021/06/15 04:11:14;;;;;;;5.93;4.30;;;22.50;50.50;;;;;;5030920;28;20800;-48
2021/06/15 04:13:42;;;;;;;4.63;4.20;;;22.50;50.80;;;;;;5033597;28;20448;-49
2021/06/15 04:16:10;;;;;;;4.80;4.10;;;22.70;50.30;;;;;;5033519;28;20508;-51
2021/06/15 04:18:37;;;;;;;4.43;4.03;;;22.70;50.00;;;;;;5028575;28;20790;-52
2021/06/15 04:21:06;;;;;;;4.73;4.33;;;22.80;49.90;;;;;;5034254;28;20443;-52
2021/06/15 04:23:44;;;;;;;4.43;4.00;;;22.80;49.90;;;;;;5031826;28;20534;-52
2021/06/15 04:26:10;;;;;;;4.70;4.20;;;22.60;50.30;;;;;;5033564;28;20486;-51
2021/06/15 04:28:38;;;;;;;4.60;4.03;;;22.40;50.90;;;;;;5031723;28;20561;-52
2021/06/15 04:31:04;;;;;;;4.00;3.70;;;22.00;51.40;;;;;;5032800;28;20639;-51
2021/06/15 04:33:32;;;;;;;4.20;3.70;;;22.00;52.10;;;;;;5032915;28;20527;-51
2021/06/15 04:36:01;;;;;;;4.70;4.30;;;22.20;51.90;;;;;;5027416;28;20436;-52
2021/06/15 04:38:33;;;;;;;4.50;3.80;;;22.50;51.10;;;;;;5033559;28;20455;-50
2021/06/15 04:41:04;;;;;;;9.50;4.47;;;22.80;50.40;;;;;;5034171;28;20794;-49
2021/06/15 04:43:48;;;;;;;4.67;3.60;;;23.10;50.00;;;;;;5032024;28;20846;-52
2021/06/15 04:46:31;;;;;;;5.57;3.83;;;23.30;49.50;;;;;;5031301;28;20478;-48
2021/06/15 04:49:14;;;;;;;5.03;3.90;;;23.50;49.10;;;;;;5028152;28;20493;-51
2021/06/15 04:51:40;;;;;;;4.60;4.20;;;23.70;48.60;;;;;;5027177;28;20547;-51
2021/06/15 04:54:09;;;;;;;4.43;4.10;;;23.80;48.40;;;;;;5028787;28;20440;-52
2021/06/15 04:56:35;;;;;;;4.30;3.90;;;23.80;48.30;;;;;;5029905;28;20440;-50
2021/06/15 04:59:02;;;;;;;6.90;4.30;;;23.80;48.20;;;;;;5031592;28;20435;-49
2021/06/15 05:01:28;;;;;;;5.73;4.40;;;23.90;48.00;;;;;;5028913;28;20909;-49
2021/06/15 05:03:55;;;;;;;5.10;4.33;;;24.00;47.80;;;;;;5030277;28;20483;-50
2021/06/15 05:06:21;;;;;;;9.20;4.87;;;24.00;47.60;;;;;;5026094;28;20460;-50
2021/06/15 05:08:56;;;;;;;5.33;4.83;;;24.00;47.80;;;;;;5028667;28;20491;-51
2021/06/15 05:11:23;;;;;;;4.33;3.90;;;24.00;47.90;;;;;;5020970;28;20966;-51
2021/06/15 05:13:51;;;;;;;6.70;4.77;;;24.20;47.70;;;;;;5030462;28;20483;-50
2021/06/15 05:16:18;;;;;;;5.10;3.80;;;24.20;47.30;;;;;;5030636;28;20452;-48
2021/06/15 05:18:44;;;;;;;5.30;4.80;;;24.30;47.40;;;;;;5028752;28;20539;-51
2021/06/15 05:21:14;;;;;;;4.37;3.97;;;24.20;47.40;;;;;;5023486;28;20547;-50
2021/06/15 05:23:45;;;;;;;4.17;3.77;;;24.30;47.60;;;;;;5026164;28;20198;-48
2021/06/15 05:26:12;;;;;;;5.93;4.57;;;24.40;47.60;;;;;;5029928;28;20450;-49
2021/06/15 05:28:38;;;;;;;5.30;3.90;;;24.20;47.20;;;;;;5025877;28;20471;-48
2021/06/15 05:31:03;;;;;;;6.43;4.50;;;24.00;47.90;;;;;;5025039;28;20439;-48
2021/06/15 05:33:29;;;;;;;4.90;4.50;;;23.60;48.40;;;;;;5023660;28;20201;-53
2021/06/15 05:35:54;;;;;;;7.00;4.73;;;23.20;49.00;;;;;;5029201;28;20204;-49
2021/06/15 05:38:20;;;;;;;5.10;4.60;;;22.90;50.30;;;;;;5031732;28;20258;-48
2021/06/15 05:40:47;;;;;;;8.10;4.60;;;23.10;50.10;;;;;;5031298;28;20661;-48
2021/06/15 05:43:13;;;;;;;5.67;4.37;;;23.00;49.90;;;;;;5029578;28;20576;-52
2021/06/15 05:45:38;;;;;;;5.67;4.20;;;23.00;50.50;;;;;;5016279;28;20421;-49
2021/06/15 05:48:04;;;;;;;6.17;4.47;;;23.30;50.00;;;;;;5030988;28;20193;-48
2021/06/15 05:50:30;;;;;;;7.10;3.87;;;23.20;50.40;;;;;;5031873;28;20208;-49
2021/06/15 05:52:56;;;;;;;6.20;4.03;;;23.40;50.10;;;;;;5032044;28;20200;-52
2021/06/15 05:55:21;;;;;;;5.10;4.40;;;23.70;49.60;;;;;;5026330;28;20946;-51
2021/06/15 05:57:47;;;;;;;7.10;4.20;;;24.00;49.10;;;;;;5031896;28;20205;-49
2021/06/15 06:00:13;;;;;;;5.53;4.13;;;24.10;49.00;;;;;;5030770;28;20196;-49
2021/06/15 06:02:39;;;;;;;4.67;4.03;;;24.10;49.40;;;;;;5025545;28;20202;-52
2021/06/15 06:08:04;;;;;;;6.33;3.20;;;24.10;49.50;;;;;;5018203;28;20447;-50
2021/06/15 06:08:09;;;;;;;4.33;4.03;;;24.30;49.30;;;;;;5031546;28;20201;-50
2021/06/15 06:10:37;;;;;;;4.00;3.70;;;24.50;48.60;;;;;;5028358;28;20440;-49
2021/06/15 06:13:06;;;;;;;4.90;3.27;;;24.40;47.40;;;;;;5028822;28;20464;-49
2021/06/15 06:15:32;;;;;;;5.17;3.83;;;24.10;48.00;;;;;;5029311;28;20783;-49
2021/06/15 06:18:06;;;;;;;3.80;3.50;;;24.20;48.10;;;;;;5032017;28;20527;-51
2021/06/15 06:20:32;;;;;;;5.07;3.73;;;24.10;47.90;;;;;;5031266;28;20216;-52
2021/06/15 06:22:59;;;;;;;10.00;3.80;;;23.90;48.60;;;;;;5029506;28;20420;-50
2021/06/15 06:25:27;;;;;;;7.30;3.43;;;24.00;48.50;;;;;;5023363;28;20203;-50
2021/06/15 06:27:53;;;;;;;3.60;3.30;;;24.10;47.50;;;;;;5028796;28;20429;-50
2021/06/15 06:30:20;;;;;;;6.37;3.47;;;24.00;47.80;;;;;;5024047;28;20480;-48
2021/06/15 06:32:45;;;;;;;4.90;3.50;;;23.70;47.50;;;;;;5021581;28;20522;-52
2021/06/15 06:35:11;;;;;;;3.70;3.40;;;23.60;48.70;;;;;;5022263;28;20530;-48
2021/06/15 06:37:37;;;;;;;6.07;3.67;;;23.70;48.70;;;;;;5028250;28;20181;-49
2021/06/15 06:40:04;;;;;;;7.17;3.63;;;24.10;48.40;;;;;;5023755;28;20200;-48
2021/06/15 06:42:30;;;;;;;4.03;3.60;;;24.40;47.90;;;;;;5021096;28;20267;-48
2021/06/15 06:44:55;;;;;;;3.67;3.10;;;24.80;46.90;;;;;;5024991;28;20503;-48
2021/06/15 06:47:21;;;;;;;5.93;3.87;;;25.10;46.50;;;;;;5028162;28;20221;-49
2021/06/15 06:49:46;;;;;;;5.53;3.77;;;24.90;45.80;;;;;;5017719;28;20243;-50
2021/06/15 06:52:12;;;;;;;4.63;4.00;;;25.00;46.10;;;;;;5014418;28;20673;-52
2021/06/15 06:54:38;;;;;;;5.03;3.20;;;25.20;45.40;;;;;;5018353;28;20653;-50
2021/06/15 06:57:04;;;;;;;4.83;2.93;;;25.20;45.40;;;;;;5029966;28;20185;-49
2021/06/15 06:59:29;;;;;;;5.73;3.27;;;25.40;43.90;;;;;;5029437;28;20718;-50
2021/06/15 07:01:55;;;;;;;2.93;2.70;;;25.60;43.60;;;;;;5027374;28;20436;-49
2021/06/15 07:04:21;;;;;;;3.93;3.13;;;25.90;43.60;;;;;;5010465;28;20217;-51
2021/06/15 07:06:46;;;;;;;3.70;3.40;;;26.20;43.30;;;;;;5015130;28;20186;-49
2021/06/15 07:09:12;;;;;;;5.83;3.63;;;26.20;42.80;;;;;;5011070;28;20225;-50
2021/06/15 07:11:37;;;;;;;3.80;3.50;;;26.20;43.20;;;;;;5022795;28;20232;-49
2021/06/15 07:14:03;;;;;;;8.00;3.70;;;26.50;43.20;;;;;;5020067;28;20210;-49
2021/06/15 07:16:29;;;;;;;3.63;3.30;;;26.50;42.50;;;;;;5011589;28;20630;-49
2021/06/15 07:18:54;;;;;;;4.47;2.97;;;26.70;42.80;;;;;;5015498;28;20197;-49
2021/06/15 07:21:20;;;;;;;3.63;3.10;;;26.90;42.90;;;;;;5017960;28;20264;-49
2021/06/15 07:23:45;;;;;;;5.50;3.90;;;27.10;42.40;;;;;;5020460;28;20221;-51
2021/06/15 07:26:11;;;;;;;3.87;3.20;;;27.30;42.30;;;;;;5011200;28;20228;-49
2021/06/15 07:28:36;;;;;;;7.03;3.23;;;27.40;42.10;;;;;;5019571;28;20221;-48
2021/06/15 07:31:02;;;;;;;6.13;3.80;;;27.50;41.30;;;;;;5011106;28;20185;-50
2021/06/15 07:33:28;;;;;;;4.20;3.40;;;27.70;41.00;;;;;;5019140;28;20225;-53
2021/06/15 07:35:53;;;;;;;3.47;3.17;;;27.80;40.80;;;;;;5010380;28;20646;-52
2021/06/15 07:38:22;;;;;;;6.87;3.20;;;27.90;40.10;;;;;;5012374;28;20201;-56
2021/06/15 07:40:48;;;;;;;4.10;3.70;;;28.10;40.00;;;;;;5028118;28;20268;-53
2021/06/15 07:43:16;;;;;;;6.63;3.80;;;28.40;40.10;;;;;;5029591;28;20967;-54
2021/06/15 07:45:41;;;;;;;3.83;3.43;;;28.50;39.00;;;;;;5028394;28;20199;-54
2021/06/15 07:48:07;;;;;;;4.90;3.67;;;28.50;38.90;;;;;;5030903;28;20999;-53
2021/06/15 07:50:33;;;;;;;3.93;3.47;;;28.70;38.10;;;;;;5030458;28;20659;-52
2021/06/15 07:52:59;;;;;;;3.73;3.00;;;28.80;38.40;;;;;;5030670;28;20185;-54
2021/06/15 07:55:24;;;;;;;5.83;4.13;;;28.80;37.50;;;;;;5029374;28;21033;-53
2021/06/15 07:57:50;;;;;;;4.03;3.63;;;28.90;37.40;;;;;;5030837;28;20193;-53
2021/06/15 08:00:17;;;;;;;3.70;3.40;;;28.90;37.70;;;;;;5025459;28;20616;-53
2021/06/15 08:02:47;;;;;;;5.17;3.83;;;29.10;38.30;;;;;;5018641;28;20205;-52
2021/06/15 08:05:13;;;;;;;3.67;3.37;;;29.20;38.00;;;;;;5028271;28;20436;-53
2021/06/15 08:07:40;;;;;;;3.57;3.27;;;29.40;38.10;;;;;;5028223;28;20455;-53
2021/06/15 08:10:06;;;;;;;3.50;3.13;;;29.50;37.50;;;;;;5029869;28;20503;-51
2021/06/15 08:12:31;;;;;;;3.97;3.07;;;29.70;37.30;;;;;;5026588;28;20494;-53
2021/06/15 08:14:57;;;;;;;8.83;3.07;;;29.90;37.60;;;;;;5028317;28;20800;-53
2021/06/15 08:17:23;;;;;;;3.30;3.10;;;30.00;35.10;;;;;;5026471;28;20193;-54
2021/06/15 08:19:49;;;;;;;2.80;2.60;;;30.20;34.80;;;;;;5028347;28;20447;-53
2021/06/15 08:22:15;;;;;;;4.53;3.30;;;30.30;34.90;;;;;;5032200;28;20212;-54
2021/06/15 08:24:41;;;;;;;2.93;2.63;;;30.40;34.80;;;;;;5027957;28;20928;-53
2021/06/15 08:27:07;;;;;;;3.27;3.03;;;30.50;34.80;;;;;;5032528;28;20197;-51
2021/06/15 08:29:32;;;;;;;4.43;3.43;;;30.60;34.60;;;;;;5024762;28;20224;-50
2021/06/15 08:31:58;;;;;;;5.20;3.40;;;30.70;35.00;;;;;;5019222;28;20646;-52
2021/06/15 08:34:24;;;;;;;4.07;3.17;;;30.80;34.00;;;;;;5032621;28;20197;-53
2021/06/15 08:36:49;;;;;;;3.67;3.00;;;30.90;33.30;;;;;;5030979;28;20224;-54
2021/06/15 08:39:15;;;;;;;5.83;3.90;;;30.90;33.50;;;;;;5026872;28;20205;-54
2021/06/15 08:41:41;;;;;;;4.30;3.03;;;31.00;34.30;;;;;;5028710;28;20200;-52
2021/06/15 08:44:08;;;;;;;4.63;3.07;;;31.10;34.60;;;;;;5028405;28;20228;-54
2021/06/15 08:46:34;;;;;;;3.97;3.30;;;31.20;35.10;;;;;;5031969;28;20185;-50
2021/06/15 08:49:01;;;;;;;4.93;3.17;;;31.40;34.30;;;;;;5032488;28;20479;-49
2021/06/15 08:51:27;;;;;;;3.80;3.20;;;31.40;34.10;;;;;;5031075;28;20444;-53
2021/06/15 08:54:02;;;;;;;5.80;4.60;;;31.50;34.30;;;;;;5031045;28;20766;-53
2021/06/15 08:56:32;;;;;;;8.23;3.50;;;31.60;34.50;;;;;;5030445;28;21006;-52
2021/06/15 08:59:26;;;;;;;3.87;3.47;;;31.60;35.50;;;;;;5032418;28;20948;-53
2021/06/15 09:01:57;;;;;;;4.13;3.73;;;31.70;36.00;;;;;;5028958;28;20441;-54
2021/06/15 09:04:23;;;;;;;6.90;3.80;;;31.80;36.70;;;;;;5024239;28;20456;-51
2021/06/15 09:06:50;;;;;;;9.53;3.20;;;31.90;35.70;;;;;;5027174;28;20455;-52
2021/06/15 09:09:16;;;;;;;3.67;3.23;;;32.00;35.20;;;;;;5026506;28;20981;-54
2021/06/15 09:11:52;;;;;;;3.37;3.07;;;32.20;35.10;;;;;;5018425;28;20951;-52
2021/06/15 09:14:37;;;;;;;5.27;3.40;;;32.40;34.20;;;;;;5028907;28;21957;-52
2021/06/15 09:17:03;;;;;;;7.20;2.90;;;32.50;33.30;;;;;;5030722;28;20460;-54
2021/06/15 09:19:28;;;;;;;3.53;2.63;;;32.70;33.50;;;;;;5032173;28;22177;-54
2021/06/15 09:21:57;;;;;;;5.33;2.60;;;32.80;32.60;;;;;;5029889;28;20716;-53
2021/06/15 09:24:24;;;;;;;2.87;2.67;;;32.90;31.80;;;;;;5026235;28;20672;-52
2021/06/15 09:27:05;;;;;;;4.03;3.03;;;33.00;31.40;;;;;;5028463;28;20440;-52
2021/06/15 09:29:36;;;;;;;4.97;2.77;;;33.30;30.80;;;;;;5028051;28;20488;-49
2021/06/15 09:32:03;;;;;;;4.93;2.87;;;33.40;30.40;;;;;;5027412;28;20458;-53
2021/06/15 09:34:29;;;;;;;2.90;2.47;;;33.40;30.40;;;;;;5030502;28;20537;-49
2021/06/15 09:36:54;;;;;;;2.37;2.17;;;33.60;30.20;;;;;;5027439;28;20493;-50
2021/06/15 09:39:21;;;;;;;4.20;2.57;;;33.70;29.10;;;;;;5018394;28;20557;-51
2021/06/15 09:41:48;;;;;;;3.20;2.90;;;33.80;29.00;;;;;;5023503;28;20194;-53
2021/06/15 09:44:31;;;;;;;6.87;3.10;;;33.90;28.10;;;;;;5012671;28;20991;-49
2021/06/15 09:47:01;;;;;;;2.73;2.53;;;34.20;27.90;;;;;;5025105;28;20440;-51
2021/06/15 09:49:44;;;;;;;3.03;2.73;;;34.30;28.30;;;;;;5023801;28;20531;-52
2021/06/15 09:52:27;;;;;;;3.10;2.80;;;34.50;28.40;;;;;;5031561;28;20534;-49
2021/06/15 09:54:57;;;;;;;5.00;3.37;;;34.60;28.40;;;;;;5018924;28;20495;-51
2021/06/15 09:57:29;;;;;;;3.10;2.80;;;34.70;26.80;;;;;;5026485;28;20440;-49
2021/06/15 10:00:16;;;;;;;3.20;2.90;;;34.80;27.30;;;;;;5029089;28;20471;-48
2021/06/15 10:02:52;;;;;;;3.13;2.57;;;34.60;27.10;;;;;;5022130;28;20452;-48
2021/06/15 10:05:32;;;;;;;2.90;2.60;;;34.80;27.40;;;;;;5028738;28;20850;-49
2021/06/15 10:08:02;;;;;;;2.90;2.70;;;34.90;27.80;;;;;;5020890;28;20445;-48
2021/06/15 10:10:30;;;;;;;4.07;3.17;;;35.10;27.80;;;;;;5028558;28;20493;-49
2021/06/15 10:12:56;;;;;;;4.30;2.90;;;35.20;27.40;;;;;;5031877;28;20511;-49
2021/06/15 10:15:23;;;;;;;3.60;2.57;;;35.30;26.40;;;;;;5029467;28;20440;-48
2021/06/15 10:17:49;;;;;;;3.63;2.50;;;35.40;26.30;;;;;;5031785;28;20432;-49
2021/06/15 10:20:22;;;;;;;3.83;2.60;;;35.60;27.20;;;;;;5028703;28;20534;-48
2021/06/15 10:22:48;;;;;;;5.00;3.03;;;35.70;26.60;;;;;;5027932;28;20781;-48
2021/06/15 10:25:16;;;;;;;3.10;2.50;;;35.60;25.90;;;;;;5022261;28;20433;-50
2021/06/15 10:27:43;;;;;;;2.87;2.67;;;35.70;25.50;;;;;;5023975;28;20460;-48
2021/06/15 10:30:11;;;;;;;3.47;2.70;;;35.70;26.00;;;;;;5029744;28;20494;-49
2021/06/15 10:32:50;;;;;;;2.50;2.30;;;35.70;25.90;;;;;;5027886;28;20853;-51
2021/06/15 10:35:53;;;;;;;2.33;2.13;;;35.80;26.50;;;;;;5028827;28;20671;-53
2021/06/15 10:38:18;;;;;;;3.17;2.70;;;35.80;26.80;;;;;;5015154;28;20444;-52
2021/06/15 10:40:50;;;;;;;4.20;2.77;;;35.90;26.00;;;;;;5027054;28;20917;-54
2021/06/15 10:43:20;;;;;;;3.37;2.77;;;36.00;25.60;;;;;;5029447;28;20656;-53
2021/06/15 10:45:51;;;;;;;3.07;2.17;;;36.00;26.00;;;;;;5030685;28;20443;-53
2021/06/15 10:48:17;;;;;;;3.60;3.00;;;36.00;26.70;;;;;;5031625;28;20498;-51
2021/06/15 10:50:46;;;;;;;3.90;2.60;;;36.10;26.70;;;;;;5029124;28;20436;-53
2021/06/15 10:53:12;;;;;;;4.00;3.03;;;36.30;26.80;;;;;;5021763;28;20256;-52
2021/06/15 10:55:46;;;;;;;2.73;2.53;;;36.20;27.10;;;;;;5015693;28;20464;-52
2021/06/15 10:58:12;;;;;;;2.93;2.63;;;36.40;26.60;;;;;;5029424;28;20448;-52
2021/06/15 11:00:51;;;;;;;2.70;2.40;;;36.40;25.40;;;;;;5028497;28;20542;-50
2021/06/15 11:03:17;;;;;;;2.87;2.40;;;36.60;24.90;;;;;;5025321;28;20455;-52
2021/06/15 11:05:50;;;;;;;2.90;2.00;;;36.70;23.60;;;;;;5030215;28;20439;-51
2021/06/15 11:08:27;;;;;;;2.60;2.40;;;36.80;24.00;;;;;;5029085;28;20189;-52
2021/06/15 11:11:20;;;;;;;4.50;2.70;;;37.00;24.00;;;;;;5015893;28;20439;-52
2021/06/15 11:13:48;;;;;;;3.80;2.47;;;36.80;23.50;;;;;;5010296;28;20885;-51
2021/06/15 11:16:35;;;;;;;3.23;2.77;;;36.10;24.10;;;;;;5008724;28;20436;-51
2021/06/15 11:19:10;;;;;;;3.20;2.50;;;36.40;25.50;;;;;;5002873;28;20464;-52
2021/06/15 11:22:07;;;;;;;3.53;2.37;;;36.60;24.30;;;;;;5003233;28;20472;-53
2021/06/15 11:24:47;;;;;;;3.00;2.70;;;36.80;24.50;;;;;;5003369;28;20499;-49
2021/06/15 11:27:30;;;;;;;3.10;2.40;;;37.00;24.00;;;;;;4999627;28;20444;-51
2021/06/15 11:30:21;;;;;;;3.60;2.47;;;37.20;23.80;;;;;;5001392;28;20801;-52
2021/06/15 11:33:00;;;;;;;5.40;2.70;;;37.40;23.50;;;;;;5009135;28;20440;-51
2021/06/15 11:35:30;;;;;;;2.43;2.23;;;37.40;23.80;;;;;;5006969;28;20440;-52
2021/06/15 11:38:01;;;;;;;5.70;2.60;;;37.30;23.50;;;;;;5006662;28;20433;-51
2021/06/15 11:40:32;;;;;;;3.10;2.37;;;37.30;23.50;;;;;;4993818;28;20473;-52
2021/06/15 11:43:11;;;;;;;3.47;3.10;;;37.40;24.30;;;;;;5009701;28;20436;-48
2021/06/15 11:45:43;;;;;;;4.40;2.80;;;37.40;23.60;;;;;;5003728;28;20432;-52
2021/06/15 11:48:18;;;;;;;2.83;2.63;;;37.50;24.00;;;;;;5002850;28;20444;-48
2021/06/15 11:50:45;;;;;;;3.80;2.60;;;37.60;23.50;;;;;;5003747;28;20463;-49
2021/06/15 11:53:18;;;;;;;2.80;2.60;;;37.50;23.70;;;;;;5007300;28;20479;-49
2021/06/15 11:55:51;;;;;;;2.50;2.40;;;37.70;24.00;;;;;;5003866;28;20440;-50
2021/06/15 11:58:20;;;;;;;2.23;2.13;;;37.80;24.50;;;;;;5001336;28;20468;-49
2021/06/15 12:01:17;;;;;;;4.60;2.70;;;38.00;24.00;;;;;;5006740;28;20498;-48
2021/06/15 12:03:45;;;;;;;3.27;2.80;;;38.00;23.30;;;;;;4990443;28;20484;-50
2021/06/15 12:06:12;;;;;;;3.20;2.37;;;38.10;23.20;;;;;;5007448;28;20498;-50
2021/06/15 12:08:40;;;;;;;3.43;2.30;;;38.20;23.50;;;;;;5014926;28;20887;-49
2021/06/15 12:11:10;;;;;;;4.13;2.23;;;38.30;23.80;;;;;;5013474;28;20433;-49
2021/06/15 12:13:38;;;;;;;2.50;2.30;;;38.30;24.00;;;;;;5029981;28;20493;-49
2021/06/15 12:16:14;;;;;;;6.13;2.70;;;38.50;23.90;;;;;;5031949;28;20525;-49
2021/06/15 12:18:41;;;;;;;2.47;2.23;;;38.70;22.50;;;;;;5032839;28;20504;-51
2021/06/15 12:21:11;;;;;;;3.00;2.70;;;38.70;23.30;;;;;;5031574;28;20447;-49
2021/06/15 12:23:48;;;;;;;3.70;2.70;;;38.80;22.30;;;;;;5026012;28;20456;-52
2021/06/15 12:26:18;;;;;;;2.53;2.43;;;38.90;22.50;;;;;;5028622;28;20450;-52
2021/06/15 12:29:01;;;;;;;4.67;2.53;;;39.00;22.10;;;;;;5024514;28;20467;-53
2021/06/15 12:31:38;;;;;;;2.43;2.33;;;38.90;22.60;;;;;;5014830;28;20773;-49
2021/06/15 12:34:13;;;;;;;2.40;2.20;;;38.90;23.00;;;;;;5018476;28;20875;-49
2021/06/15 12:36:41;;;;;;;4.77;2.27;;;38.90;23.90;;;;;;5034516;28;20426;-49
2021/06/15 12:39:22;;;;;;;3.07;2.77;;;39.00;23.90;;;;;;5033895;28;20980;-49
2021/06/15 12:42:01;;;;;;;2.73;2.53;;;39.10;23.20;;;;;;5034159;28;20512;-49
2021/06/15 12:44:32;;;;;;;2.60;2.40;;;39.20;22.60;;;;;;5017676;28;21017;-49
2021/06/15 12:47:00;;;;;;;2.67;2.17;;;39.30;22.30;;;;;;5019954;28;20463;-51
2021/06/15 12:49:25;;;;;;;4.60;2.70;;;39.10;22.50;;;;;;5009474;28;20586;-49
2021/06/15 12:52:04;;;;;;;4.13;2.80;;;39.20;22.90;;;;;;5030794;28;20546;-49
2021/06/15 12:54:35;;;;;;;2.67;2.47;;;39.30;22.30;;;;;;5013954;28;20193;-49
2021/06/15 12:57:05;;;;;;;3.33;2.97;;;39.40;21.70;;;;;;5016830;28;20444;-52
2021/06/15 12:59:33;;;;;;;2.63;2.10;;;39.30;22.00;;;;;;5013730;28;20482;-49